Time;durP1;ratioP1;P1;durP2;ratioP2;P2;SDS_P1;SDS_P2;PMS_P1;PMS_P2;Temp;Humidity;BMP_temperature;BMP_pressure;BME280_temperature;BME280_humidity;BME280_pressure;Samples;Min_cycle;Max_cycle;Signal;HPM_P1;HPM_P2
2022/10/24 00:01:19;;;;;;;2.07;0.90;;;;;;;;;;5097106;28;20223;-30
2022/10/24 00:03:46;;;;;;;4.17;1.10;;;;;;;;;;5086919;28;20237;-31
2022/10/24 00:06:14;;;;;;;4.97;1.03;;;;;;;;;;5084548;28;20258;-31
2022/10/24 00:08:42;;;;;;;5.40;0.90;;;;;;;;;;5106726;28;20207;-31
2022/10/24 00:11:11;;;;;;;1.67;1.10;;;;;;;;;;5114129;28;20234;-29
2022/10/24 00:13:39;;;;;;;3.87;0.97;;;;;;;;;;5089314;28;20729;-32
2022/10/24 00:16:06;;;;;;;1.67;0.97;;;;;;;;;;5103816;28;20210;-31
2022/10/24 00:18:33;;;;;;;2.60;0.90;;;;;;;;;;5091625;28;20192;-30
2022/10/24 00:21:00;;;;;;;2.70;1.00;;;;;;;;;;5080413;28;20227;-29
2022/10/24 00:23:27;;;;;;;5.90;1.27;;;;;;;;;;5102766;28;20220;-30
2022/10/24 00:25:55;;;;;;;2.30;0.87;;;;;;;;;;5113268;28;20211;-28
2022/10/24 00:28:23;;;;;;;4.53;0.97;;;;;;;;;;5098954;28;20207;-31
2022/10/24 00:30:51;;;;;;;3.50;0.70;;;;;;;;;;5096442;28;20308;-33
2022/10/24 00:33:18;;;;;;;5.73;1.00;;;;;;;;;;5092072;28;20204;-32
2022/10/24 00:35:46;;;;;;;9.73;1.13;;;;;;;;;;5094233;28;20208;-32
2022/10/24 00:38:13;;;;;;;6.40;1.10;;;;;;;;;;5105610;28;20561;-31
2022/10/24 00:40:40;;;;;;;6.23;1.10;;;;;;;;;;5112971;28;20227;-32
2022/10/24 00:43:11;;;;;;;7.47;1.50;;;;;;;;;;5078901;28;20251;-28
2022/10/24 00:45:42;;;;;;;3.13;1.00;;;;;;;;;;5089523;28;20220;-32
2022/10/24 00:48:14;;;;;;;3.30;0.90;;;;;;;;;;5094914;28;20650;-29
2022/10/24 00:50:41;;;;;;;4.40;1.30;;;;;;;;;;5083133;28;20232;-29
2022/10/24 00:53:09;;;;;;;2.03;0.60;;;;;;;;;;5106451;28;20188;-32
2022/10/24 00:55:36;;;;;;;3.93;1.30;;;;;;;;;;5113002;28;20204;-33
2022/10/24 00:58:04;;;;;;;4.13;1.00;;;;;;;;;;5080736;28;20206;-34
2022/10/24 01:00:32;;;;;;;3.97;0.87;;;;;;;;;;5093062;28;20229;-30
2022/10/24 01:03:01;;;;;;;7.67;1.20;;;;;;;;;;5080771;28;20224;-30
2022/10/24 01:05:32;;;;;;;6.80;1.30;;;;;;;;;;5077901;28;20198;-32
2022/10/24 01:08:04;;;;;;;1.63;0.90;;;;;;;;;;5102330;28;20192;-30
2022/10/24 01:10:35;;;;;;;3.97;1.10;;;;;;;;;;5096881;28;20228;-33
2022/10/24 01:13:06;;;;;;;8.23;1.17;;;;;;;;;;5096148;28;20197;-33
2022/10/24 01:15:39;;;;;;;7.20;1.43;;;;;;;;;;5107206;28;20200;-29
2022/10/24 01:18:11;;;;;;;5.53;1.27;;;;;;;;;;5098144;28;20247;-31
2022/10/24 01:20:43;;;;;;;5.77;1.23;;;;;;;;;;5086198;28;20225;-32
2022/10/24 01:23:39;;;;;;;5.67;1.23;;;;;;;;;;5105059;28;20204;-31
2022/10/24 01:26:11;;;;;;;6.77;1.37;;;;;;;;;;5088124;28;20219;-30
2022/10/24 01:28:41;;;;;;;9.33;1.23;;;;;;;;;;5092170;28;20287;-31
2022/10/24 01:31:11;;;;;;;5.37;1.33;;;;;;;;;;5105737;28;20231;-28
2022/10/24 01:33:40;;;;;;;1.97;1.00;;;;;;;;;;5089390;28;20212;-32
2022/10/24 01:36:10;;;;;;;8.27;1.20;;;;;;;;;;5078935;28;20209;-31
2022/10/24 01:38:41;;;;;;;1.47;1.10;;;;;;;;;;5109460;28;20204;-32
2022/10/24 01:41:11;;;;;;;5.97;1.27;;;;;;;;;;5091737;28;20306;-33
2022/10/24 01:43:40;;;;;;;5.20;1.20;;;;;;;;;;5084869;28;20225;-29
2022/10/24 01:46:09;;;;;;;2.80;1.20;;;;;;;;;;5091916;28;20213;-29
2022/10/24 01:48:40;;;;;;;3.03;1.17;;;;;;;;;;5095120;28;20213;-33
2022/10/24 01:51:08;;;;;;;3.83;0.93;;;;;;;;;;5080938;28;20224;-30
2022/10/24 01:53:36;;;;;;;3.90;0.87;;;;;;;;;;5104826;28;20224;-31
2022/10/24 01:56:03;;;;;;;4.83;1.27;;;;;;;;;;5085938;28;20199;-33
2022/10/24 01:58:31;;;;;;;5.90;1.13;;;;;;;;;;5088260;28;20208;-32
2022/10/24 02:00:59;;;;;;;7.33;1.17;;;;;;;;;;5096855;28;20231;-32
2022/10/24 02:03:29;;;;;;;6.87;1.60;;;;;;;;;;5099723;28;20217;-31
2022/10/24 02:06:01;;;;;;;7.07;1.37;;;;;;;;;;5087346;28;20208;-31
2022/10/24 02:08:30;;;;;;;3.23;0.97;;;;;;;;;;5102590;28;20209;-32
2022/10/24 02:10:59;;;;;;;1.47;0.93;;;;;;;;;;5091014;28;20237;-31
2022/10/24 02:13:27;;;;;;;3.23;0.97;;;;;;;;;;5076360;28;20204;-28
2022/10/24 02:15:57;;;;;;;4.80;1.17;;;;;;;;;;5093235;28;20204;-29
2022/10/24 02:18:24;;;;;;;1.07;0.90;;;;;;;;;;5095264;28;20201;-32
2022/10/24 02:20:58;;;;;;;2.27;1.03;;;;;;;;;;5077325;28;20434;-29
2022/10/24 02:23:31;;;;;;;3.60;1.00;;;;;;;;;;5101326;28;20221;-34
2022/10/24 02:26:00;;;;;;;11.00;1.43;;;;;;;;;;5083112;28;20205;-28
2022/10/24 02:28:30;;;;;;;4.40;1.43;;;;;;;;;;5079934;28;20211;-30
2022/10/24 02:31:08;;;;;;;4.10;1.13;;;;;;;;;;5102221;28;20224;-31
2022/10/24 02:33:36;;;;;;;4.73;1.50;;;;;;;;;;5079455;28;20223;-34
2022/10/24 02:36:05;;;;;;;5.57;1.30;;;;;;;;;;5082569;28;20284;-32
2022/10/24 02:38:35;;;;;;;3.00;1.57;;;;;;;;;;5089262;28;20208;-30
2022/10/24 02:41:03;;;;;;;8.73;1.20;;;;;;;;;;5098314;28;20310;-34
2022/10/24 02:43:32;;;;;;;3.77;1.47;;;;;;;;;;5080036;28;20220;-29
2022/10/24 02:45:59;;;;;;;1.57;0.70;;;;;;;;;;5102628;28;20200;-33
2022/10/24 02:48:28;;;;;;;5.63;1.03;;;;;;;;;;5100777;28;20196;-31
2022/10/24 02:50:56;;;;;;;5.17;1.60;;;;;;;;;;5093672;28;20221;-31
2022/10/24 02:53:25;;;;;;;3.30;1.20;;;;;;;;;;5102401;28;20204;-32
2022/10/24 02:55:53;;;;;;;5.00;1.30;;;;;;;;;;5109762;28;20207;-33
2022/10/24 02:58:20;;;;;;;1.37;1.03;;;;;;;;;;5083715;28;20197;-31
2022/10/24 03:00:48;;;;;;;7.63;1.60;;;;;;;;;;5101749;28;20226;-34
2022/10/24 03:03:15;;;;;;;6.37;1.30;;;;;;;;;;5079958;28;20242;-35
2022/10/24 03:05:42;;;;;;;8.97;1.67;;;;;;;;;;5084505;28;20208;-30
2022/10/24 03:08:09;;;;;;;4.17;1.40;;;;;;;;;;5108915;28;20224;-30
2022/10/24 03:10:36;;;;;;;3.50;1.60;;;;;;;;;;5111210;28;20255;-29
2022/10/24 03:13:05;;;;;;;4.07;1.47;;;;;;;;;;5093261;28;20207;-28
2022/10/24 03:15:32;;;;;;;6.53;1.30;;;;;;;;;;5088292;28;20196;-29
2022/10/24 03:17:59;;;;;;;4.60;1.53;;;;;;;;;;5094289;28;20202;-29
2022/10/24 03:20:26;;;;;;;6.63;1.40;;;;;;;;;;5079919;28;20605;-32
2022/10/24 03:22:53;;;;;;;4.00;1.20;;;;;;;;;;5100400;28;20204;-32
2022/10/24 03:25:21;;;;;;;3.17;1.43;;;;;;;;;;5110003;28;20206;-30
2022/10/24 03:27:48;;;;;;;5.87;1.80;;;;;;;;;;5101272;28;20233;-30
2022/10/24 03:30:16;;;;;;;4.23;1.23;;;;;;;;;;5095129;28;20219;-31
2022/10/24 03:32:43;;;;;;;6.90;1.40;;;;;;;;;;5099878;28;20334;-30
2022/10/24 03:35:11;;;;;;;2.03;1.00;;;;;;;;;;5087584;28;20207;-29
2022/10/24 03:37:38;;;;;;;12.47;1.63;;;;;;;;;;5103472;28;20232;-32
2022/10/24 03:40:06;;;;;;;4.63;1.20;;;;;;;;;;5113764;28;20227;-28
2022/10/24 03:42:33;;;;;;;6.20;1.63;;;;;;;;;;5114216;28;20200;-33
2022/10/24 03:45:00;;;;;;;3.50;1.10;;;;;;;;;;5081952;28;20228;-33
2022/10/24 03:47:28;;;;;;;3.70;1.10;;;;;;;;;;5101741;28;20196;-30
2022/10/24 03:49:56;;;;;;;5.43;1.50;;;;;;;;;;5085006;28;20233;-32
2022/10/24 03:52:23;;;;;;;3.47;1.53;;;;;;;;;;5107759;28;20283;-33
2022/10/24 03:54:50;;;;;;;3.10;1.33;;;;;;;;;;5106487;28;20200;-29
2022/10/24 03:57:17;;;;;;;12.37;1.53;;;;;;;;;;5088857;28;20207;-30
2022/10/24 03:59:44;;;;;;;4.47;1.30;;;;;;;;;;5095399;28;20285;-31
2022/10/24 04:02:12;;;;;;;7.83;1.63;;;;;;;;;;5103397;28;20215;-32
2022/10/24 04:04:41;;;;;;;2.83;1.30;;;;;;;;;;5081996;28;20224;-28
2022/10/24 04:07:08;;;;;;;3.33;1.40;;;;;;;;;;5093356;28;20215;-32
2022/10/24 04:09:36;;;;;;;2.17;1.30;;;;;;;;;;5110328;28;20199;-32
2022/10/24 04:12:03;;;;;;;5.90;1.63;;;;;;;;;;5100622;28;20200;-33
2022/10/24 04:14:30;;;;;;;5.40;1.40;;;;;;;;;;5092267;28;20224;-33
2022/10/24 04:16:57;;;;;;;5.00;1.23;;;;;;;;;;5111025;28;20206;-34
2022/10/24 04:19:24;;;;;;;5.33;1.67;;;;;;;;;;5088884;28;20209;-31
2022/10/24 04:21:53;;;;;;;4.57;1.03;;;;;;;;;;5094107;28;20232;-29
2022/10/24 04:24:20;;;;;;;2.03;1.10;;;;;;;;;;5113623;28;20224;-32
2022/10/24 04:26:48;;;;;;;2.20;1.03;;;;;;;;;;5108474;28;20200;-31
2022/10/24 04:29:15;;;;;;;4.10;1.60;;;;;;;;;;5086967;28;20211;-32
2022/10/24 04:31:42;;;;;;;4.40;1.60;;;;;;;;;;5100632;28;20250;-30
2022/10/24 04:34:09;;;;;;;7.70;1.50;;;;;;;;;;5085239;28;20217;-32
2022/10/24 04:36:36;;;;;;;5.67;1.47;;;;;;;;;;5094883;28;20206;-32
2022/10/24 04:39:05;;;;;;;5.27;1.93;;;;;;;;;;5099882;28;20204;-31
2022/10/24 04:41:32;;;;;;;6.70;1.50;;;;;;;;;;5085481;28;20220;-29
2022/10/24 04:43:59;;;;;;;4.43;1.30;;;;;;;;;;5111266;28;20220;-32
2022/10/24 04:46:26;;;;;;;7.33;2.30;;;;;;;;;;5106178;28;20237;-29
2022/10/24 04:48:53;;;;;;;5.27;1.43;;;;;;;;;;5091893;28;20276;-31
2022/10/24 04:51:20;;;;;;;9.20;1.60;;;;;;;;;;5097497;28;20250;-29
2022/10/24 04:53:48;;;;;;;6.80;1.97;;;;;;;;;;5105323;28;20207;-32
2022/10/24 04:56:16;;;;;;;3.03;1.40;;;;;;;;;;5106819;28;20212;-32
2022/10/24 04:58:43;;;;;;;5.67;1.40;;;;;;;;;;5077785;28;20266;-32
2022/10/24 05:01:10;;;;;;;4.83;1.43;;;;;;;;;;5085412;28;20230;-32
2022/10/24 05:03:38;;;;;;;3.90;1.77;;;;;;;;;;5084287;28;20227;-30
2022/10/24 05:06:05;;;;;;;8.73;1.80;;;;;;;;;;5090392;28;20205;-32
2022/10/24 05:08:32;;;;;;;6.23;1.63;;;;;;;;;;5101400;28;20284;-34
2022/10/24 05:10:59;;;;;;;3.13;1.63;;;;;;;;;;5082948;28;20449;-31
2022/10/24 05:13:28;;;;;;;3.93;1.70;;;;;;;;;;5085134;28;20214;-30
2022/10/24 05:15:55;;;;;;;4.07;1.53;;;;;;;;;;5103002;28;20488;-32
2022/10/24 05:18:22;;;;;;;5.00;1.40;;;;;;;;;;5099926;28;20201;-31
2022/10/24 05:20:49;;;;;;;2.27;1.60;;;;;;;;;;5081163;28;20224;-31
2022/10/24 05:23:16;;;;;;;3.90;1.60;;;;;;;;;;5079812;28;20212;-29
2022/10/24 05:25:43;;;;;;;5.33;2.20;;;;;;;;;;5091696;28;20286;-30
2022/10/24 05:28:10;;;;;;;3.43;1.30;;;;;;;;;;5086706;28;20208;-33
2022/10/24 05:30:39;;;;;;;8.70;2.30;;;;;;;;;;5088783;28;20231;-30
2022/10/24 05:33:06;;;;;;;3.90;2.00;;;;;;;;;;5082373;28;20219;-31
2022/10/24 05:35:33;;;;;;;7.30;1.70;;;;;;;;;;5095909;28;20224;-29
2022/10/24 05:38:00;;;;;;;7.50;1.97;;;;;;;;;;5090544;28;20209;-28
2022/10/24 05:40:27;;;;;;;5.43;1.77;;;;;;;;;;5090450;28;20221;-32
2022/10/24 05:42:55;;;;;;;7.63;2.03;;;;;;;;;;5088175;28;20215;-33
2022/10/24 05:45:22;;;;;;;7.27;1.90;;;;;;;;;;5089004;28;20224;-33
2022/10/24 05:47:50;;;;;;;6.57;1.67;;;;;;;;;;5088846;28;20208;-32
2022/10/24 05:50:18;;;;;;;3.90;1.70;;;;;;;;;;5084975;28;20533;-31
2022/10/24 05:52:45;;;;;;;3.23;1.77;;;;;;;;;;5090099;28;20287;-32
2022/10/24 05:55:12;;;;;;;4.23;1.93;;;;;;;;;;5087258;28;20277;-32
2022/10/24 05:57:39;;;;;;;2.87;1.70;;;;;;;;;;5084651;28;20207;-27
2022/10/24 06:00:08;;;;;;;6.57;1.70;;;;;;;;;;5090135;28;20228;-31
2022/10/24 06:02:35;;;;;;;9.40;1.77;;;;;;;;;;5376923;22;20222;-31
2022/10/24 06:05:04;;;;;;;5.00;1.80;;;;;;;;;;5133882;27;20242;-32
2022/10/24 06:07:31;;;;;;;5.00;2.50;;;;;;;;;;5152485;27;20202;-33
2022/10/24 06:09:58;;;;;;;4.37;2.10;;;;;;;;;;5156766;27;20312;-33
2022/10/24 06:12:25;;;;;;;4.43;2.17;;;;;;;;;;5162868;27;20197;-33
2022/10/24 06:14:56;;;;;;;4.60;1.83;;;;;;;;;;5153573;27;20195;-32
2022/10/24 06:17:23;;;;;;;7.60;1.80;;;;;;;;;;5167436;27;20197;-30
2022/10/24 06:19:50;;;;;;;6.77;2.13;;;;;;;;;;5160302;27;20226;-29
2022/10/24 06:22:22;;;;;;;3.87;1.90;;;;;;;;;;5163436;27;20206;-34
2022/10/24 06:24:49;;;;;;;6.53;1.37;;;;;;;;;;5171258;27;20226;-33
2022/10/24 06:27:17;;;;;;;9.67;2.23;;;;;;;;;;5160688;27;20208;-29
2022/10/24 06:29:44;;;;;;;3.10;1.60;;;;;;;;;;5165634;27;20205;-32
2022/10/24 06:32:11;;;;;;;5.97;2.00;;;;;;;;;;5175362;27;20285;-29
2022/10/24 06:34:39;;;;;;;5.10;1.77;;;;;;;;;;5169170;27;20289;-33
2022/10/24 06:37:06;;;;;;;8.90;2.93;;;;;;;;;;5162550;27;20210;-32
2022/10/24 06:39:34;;;;;;;7.30;2.20;;;;;;;;;;5161440;27;20757;-32
2022/10/24 06:42:02;;;;;;;4.80;1.70;;;;;;;;;;5167849;27;21377;-30
2022/10/24 06:44:29;;;;;;;4.17;1.83;;;;;;;;;;5154281;27;20226;-33
2022/10/24 06:46:56;;;;;;;6.70;2.00;;;;;;;;;;5158538;27;20213;-33
2022/10/24 06:49:23;;;;;;;3.63;2.00;;;;;;;;;;5155279;27;20285;-33
2022/10/24 06:51:50;;;;;;;3.97;1.87;;;;;;;;;;5162923;27;20231;-34
2022/10/24 06:54:17;;;;;;;6.03;2.17;;;;;;;;;;5156203;27;20534;-33
2022/10/24 06:56:46;;;;;;;7.60;2.63;;;;;;;;;;5164440;27;20205;-30
2022/10/24 06:59:15;;;;;;;4.00;1.80;;;;;;;;;;5160488;27;20200;-35
2022/10/24 07:01:42;;;;;;;7.33;2.57;;;;;;;;;;5175084;27;20225;-29
2022/10/24 07:04:10;;;;;;;11.80;2.07;;;;;;;;;;5162321;27;20204;-33
2022/10/24 07:06:39;;;;;;;4.00;1.90;;;;;;;;;;5160345;27;20202;-32
2022/10/24 07:09:08;;;;;;;2.43;1.60;;;;;;;;;;5166084;27;20202;-30
2022/10/24 07:11:41;;;;;;;7.57;3.13;;;;;;;;;;5158528;27;20691;-31
2022/10/24 07:14:10;;;;;;;11.33;2.33;;;;;;;;;;5168278;27;20282;-33
2022/10/24 07:16:37;;;;;;;6.67;2.00;;;;;;;;;;5166751;27;20284;-30
2022/10/24 07:19:05;;;;;;;4.23;2.20;;;;;;;;;;5160317;27;20198;-35
2022/10/24 07:21:33;;;;;;;5.20;2.27;;;;;;;;;;5161058;27;20228;-32
2022/10/24 07:24:00;;;;;;;8.57;2.00;;;;;;;;;;5165385;27;20273;-32
2022/10/24 07:26:28;;;;;;;5.23;1.90;;;;;;;;;;5167556;27;20839;-31
2022/10/24 07:28:57;;;;;;;5.80;2.60;;;;;;;;;;5156378;27;20210;-30
2022/10/24 07:31:26;;;;;;;4.73;1.80;;;;;;;;;;5157219;27;20218;-33
2022/10/24 07:33:54;;;;;;;3.73;1.70;;;;;;;;;;5159578;27;20225;-34
2022/10/24 07:36:22;;;;;;;6.20;2.23;;;;;;;;;;5156868;27;20447;-34
2022/10/24 07:38:50;;;;;;;8.67;2.20;;;;;;;;;;5162340;27;20226;-33
2022/10/24 07:41:18;;;;;;;7.73;2.50;;;;;;;;;;5158779;27;20236;-31
2022/10/24 07:43:45;;;;;;;6.17;2.40;;;;;;;;;;5163937;27;20205;-34
2022/10/24 07:46:13;;;;;;;3.80;1.90;;;;;;;;;;5161832;27;20224;-28
2022/10/24 07:48:42;;;;;;;6.90;2.40;;;;;;;;;;5162592;27;20295;-30
2022/10/24 07:51:10;;;;;;;4.67;1.83;;;;;;;;;;5163082;27;20222;-32
2022/10/24 07:53:37;;;;;;;4.70;1.83;;;;;;;;;;5157977;27;20203;-34
2022/10/24 07:56:08;;;;;;;6.07;2.00;;;;;;;;;;5173649;27;20559;-33
2022/10/24 07:58:35;;;;;;;8.30;1.83;;;;;;;;;;5163309;27;20325;-32
2022/10/24 08:01:06;;;;;;;6.70;1.90;;;;;;;;;;5156904;27;20233;-29
2022/10/24 08:03:33;;;;;;;6.57;2.20;;;;;;;;;;5162508;27;20204;-35
2022/10/24 08:06:04;;;;;;;6.40;2.37;;;;;;;;;;5173231;27;20444;-33
2022/10/24 08:08:32;;;;;;;2.90;1.70;;;;;;;;;;5171580;27;20205;-33
2022/10/24 08:10:59;;;;;;;5.43;2.00;;;;;;;;;;5176398;27;20540;-35
2022/10/24 08:13:26;;;;;;;6.47;2.20;;;;;;;;;;5161678;27;20202;-33
2022/10/24 08:15:55;;;;;;;10.87;2.47;;;;;;;;;;5164974;27;20289;-31
2022/10/24 08:18:32;;;;;;;6.33;2.00;;;;;;;;;;5155005;27;20231;-33
2022/10/24 08:21:00;;;;;;;5.90;1.97;;;;;;;;;;5160837;27;20226;-35
2022/10/24 08:23:29;;;;;;;5.67;2.40;;;;;;;;;;5171636;27;20198;-32
2022/10/24 08:25:56;;;;;;;2.77;2.00;;;;;;;;;;5163449;27;20222;-32
2022/10/24 08:28:23;;;;;;;12.00;2.77;;;;;;;;;;5172598;27;20203;-30
2022/10/24 08:30:57;;;;;;;15.97;4.17;;;;;;;;;;5166862;27;20232;-32
2022/10/24 08:33:24;;;;;;;8.73;3.33;;;;;;;;;;5167334;27;20261;-33
2022/10/24 08:35:59;;;;;;;8.13;3.27;;;;;;;;;;5166359;27;20658;-33
2022/10/24 08:38:26;;;;;;;9.17;3.67;;;;;;;;;;5164712;27;20281;-33
2022/10/24 08:40:55;;;;;;;6.77;2.60;;;;;;;;;;5159341;27;20226;-32
2022/10/24 08:43:22;;;;;;;6.83;2.10;;;;;;;;;;5166932;27;20675;-31
2022/10/24 08:45:54;;;;;;;7.80;2.23;;;;;;;;;;5173281;27;20225;-33
2022/10/24 08:48:26;;;;;;;3.63;2.07;;;;;;;;;;5172722;27;20205;-34
2022/10/24 08:50:54;;;;;;;3.60;1.77;;;;;;;;;;5165113;27;20226;-33
2022/10/24 08:53:24;;;;;;;5.67;2.23;;;;;;;;;;5168962;27;20293;-33
2022/10/24 08:55:53;;;;;;;9.60;2.20;;;;;;;;;;5175032;27;20198;-30
2022/10/24 08:58:24;;;;;;;7.23;2.40;;;;;;;;;;5163604;27;20199;-30
2022/10/24 09:00:53;;;;;;;4.47;2.70;;;;;;;;;;5166589;27;20226;-32
2022/10/24 09:03:32;;;;;;;3.63;1.80;;;;;;;;;;5163330;27;20281;-34
2022/10/24 09:06:04;;;;;;;5.43;1.90;;;;;;;;;;5169491;27;20232;-32
2022/10/24 09:08:34;;;;;;;10.20;2.03;;;;;;;;;;5159957;27;20275;-33
2022/10/24 09:11:02;;;;;;;4.30;1.97;;;;;;;;;;5159187;27;20228;-30
2022/10/24 09:13:31;;;;;;;6.30;1.90;;;;;;;;;;5165265;27;20210;-34
2022/10/24 09:15:58;;;;;;;6.70;2.50;;;;;;;;;;5160431;27;20191;-35
2022/10/24 09:18:27;;;;;;;3.43;1.73;;;;;;;;;;5153733;27;20205;-29
2022/10/24 09:20:55;;;;;;;3.60;1.83;;;;;;;;;;5165584;27;20455;-31
2022/10/24 09:23:24;;;;;;;4.30;1.70;;;;;;;;;;5167960;27;20203;-30
2022/10/24 09:25:53;;;;;;;7.90;1.90;;;;;;;;;;5171515;27;20309;-31
2022/10/24 09:28:20;;;;;;;4.80;2.10;;;;;;;;;;5158605;27;20209;-35
2022/10/24 09:30:49;;;;;;;3.87;2.10;;;;;;;;;;5162080;27;20255;-34
2022/10/24 09:33:23;;;;;;;5.77;2.27;;;;;;;;;;5170962;27;20248;-37
2022/10/24 09:35:51;;;;;;;6.87;1.93;;;;;;;;;;5168954;27;20855;-31
2022/10/24 09:38:26;;;;;;;6.27;2.00;;;;;;;;;;5168890;27;20226;-29
2022/10/24 09:40:54;;;;;;;4.43;2.00;;;;;;;;;;5152422;27;20285;-34
2022/10/24 09:43:23;;;;;;;5.70;1.80;;;;;;;;;;5157926;27;20915;-30
2022/10/24 09:45:52;;;;;;;6.43;1.93;;;;;;;;;;5161530;27;20306;-32
2022/10/24 09:48:22;;;;;;;7.00;1.87;;;;;;;;;;5165683;27;20206;-33
2022/10/24 09:50:50;;;;;;;3.53;1.90;;;;;;;;;;5161311;27;20232;-31
2022/10/24 09:53:27;;;;;;;3.23;1.63;;;;;;;;;;5168471;27;20621;-33
2022/10/24 09:55:57;;;;;;;5.10;1.87;;;;;;;;;;5161784;27;20199;-35
2022/10/24 09:58:31;;;;;;;7.50;2.07;;;;;;;;;;5164043;27;20308;-33
2022/10/24 10:01:01;;;;;;;6.00;2.73;;;;;;;;;;5164166;27;20232;-28
2022/10/24 10:03:28;;;;;;;3.90;1.97;;;;;;;;;;5160870;27;20647;-31
2022/10/24 10:05:56;;;;;;;4.90;1.90;;;;;;;;;;5159646;27;20228;-33
2022/10/24 10:08:25;;;;;;;4.37;2.20;;;;;;;;;;5151774;27;20198;-28
2022/10/24 10:11:07;;;;;;;5.67;1.77;;;;;;;;;;5156294;27;20228;-32
2022/10/24 10:13:37;;;;;;;5.67;2.10;;;;;;;;;;5160802;27;20734;-34
2022/10/24 10:16:07;;;;;;;4.87;1.83;;;;;;;;;;5157544;27;20197;-34
2022/10/24 10:18:41;;;;;;;3.57;1.83;;;;;;;;;;5157271;27;20190;-31
2022/10/24 10:21:11;;;;;;;2.63;2.00;;;;;;;;;;5158916;27;20225;-33
2022/10/24 10:23:39;;;;;;;6.63;2.23;;;;;;;;;;5164266;27;20202;-30
2022/10/24 10:26:21;;;;;;;5.17;2.23;;;;;;;;;;5168551;27;20232;-33
2022/10/24 10:28:53;;;;;;;4.67;2.00;;;;;;;;;;5160347;27;20202;-30
2022/10/24 10:31:25;;;;;;;2.87;2.17;;;;;;;;;;5156195;27;20260;-34
2022/10/24 10:33:58;;;;;;;4.47;2.37;;;;;;;;;;5154667;27;20209;-32
2022/10/24 10:36:30;;;;;;;5.50;2.07;;;;;;;;;;5164676;27;20192;-34
2022/10/24 10:39:03;;;;;;;5.20;2.17;;;;;;;;;;5163649;27;20202;-32
2022/10/24 10:41:35;;;;;;;5.10;2.23;;;;;;;;;;5153248;27;20226;-32
2022/10/24 10:44:08;;;;;;;3.60;1.77;;;;;;;;;;5160086;27;20233;-31
2022/10/24 10:46:41;;;;;;;7.73;2.50;;;;;;;;;;5165802;27;20221;-33
2022/10/24 10:49:11;;;;;;;5.23;2.43;;;;;;;;;;5154966;27;20195;-32
2022/10/24 10:51:43;;;;;;;6.53;2.43;;;;;;;;;;5174929;27;20236;-31
2022/10/24 10:54:17;;;;;;;6.13;2.20;;;;;;;;;;5174455;27;20206;-34
2022/10/24 10:56:48;;;;;;;6.10;2.50;;;;;;;;;;5170593;27;20198;-31
2022/10/24 10:59:23;;;;;;;5.47;2.83;;;;;;;;;;5165708;27;20208;-31
2022/10/24 11:01:56;;;;;;;5.73;2.80;;;;;;;;;;5169395;27;20230;-30
2022/10/24 11:04:27;;;;;;;5.33;2.33;;;;;;;;;;5155131;27;20195;-34
2022/10/24 11:07:01;;;;;;;5.83;2.30;;;;;;;;;;5162643;27;20225;-33
2022/10/24 11:09:30;;;;;;;6.47;2.20;;;;;;;;;;5159409;27;20202;-32
2022/10/24 11:12:01;;;;;;;3.37;2.30;;;;;;;;;;5171005;27;20206;-35
2022/10/24 11:14:30;;;;;;;3.00;1.53;;;;;;;;;;5153797;27;20195;-34
2022/10/24 11:17:02;;;;;;;5.77;1.80;;;;;;;;;;5156137;27;20215;-33
2022/10/24 11:19:32;;;;;;;2.43;1.50;;;;;;;;;;5157570;27;20198;-34
2022/10/24 11:22:02;;;;;;;1.87;1.33;;;;;;;;;;5162365;27;20210;-32
2022/10/24 11:24:30;;;;;;;8.17;1.63;;;;;;;;;;5159938;27;20205;-33
2022/10/24 11:27:02;;;;;;;5.90;2.07;;;;;;;;;;5152432;27;20225;-31
2022/10/24 11:29:32;;;;;;;6.33;1.97;;;;;;;;;;5158443;27;20201;-32
2022/10/24 11:32:05;;;;;;;4.07;1.43;;;;;;;;;;5173401;27;20281;-32
2022/10/24 11:34:34;;;;;;;3.20;1.43;;;;;;;;;;5160149;27;20530;-34
2022/10/24 11:37:03;;;;;;;2.30;1.10;;;;;;;;;;5165856;27;20678;-31
2022/10/24 11:39:33;;;;;;;2.03;1.43;;;;;;;;;;5174652;27;20206;-31
2022/10/24 11:42:02;;;;;;;1.67;1.20;;;;;;;;;;5170987;27;20291;-34
2022/10/24 11:44:39;;;;;;;2.33;1.20;;;;;;;;;;5158651;27;20564;-33
2022/10/24 11:47:12;;;;;;;2.07;1.30;;;;;;;;;;5168939;27;20219;-29
2022/10/24 11:49:42;;;;;;;1.40;1.10;;;;;;;;;;5167474;27;20333;-35
2022/10/24 11:52:14;;;;;;;2.63;1.07;;;;;;;;;;5157931;27;20213;-36
2022/10/24 11:54:46;;;;;;;1.80;1.03;;;;;;;;;;5157885;27;20213;-35
2022/10/24 11:57:15;;;;;;;2.67;1.00;;;;;;;;;;5160005;27;20191;-33
2022/10/24 11:59:42;;;;;;;1.27;1.00;;;;;;;;;;5162084;27;20241;-34
2022/10/24 12:04:45;;;;;;;2.73;0.90;;;;;;;;;;5129070;27;20239;-30
2022/10/24 12:07:37;;;;;;;2.60;1.00;;;;;;;;;;5127852;27;20215;-30
2022/10/24 12:10:14;;;;;;;3.53;1.30;;;;;;;;;;5141822;27;20222;-33
2022/10/24 12:12:51;;;;;;;1.80;1.17;;;;;;;;;;5154494;27;20194;-29
2022/10/24 12:15:26;;;;;;;1.80;1.07;;;;;;;;;;5136988;27;20202;-31
2022/10/24 12:18:00;;;;;;;4.97;1.17;;;;;;;;;;5142905;27;20250;-29
2022/10/24 12:20:30;;;;;;;2.07;1.30;;;;;;;;;;5140791;27;20230;-31
2022/10/24 12:22:58;;;;;;;3.90;1.13;;;;;;;;;;5137804;27;20286;-28
2022/10/24 12:25:29;;;;;;;2.63;1.00;;;;;;;;;;5141092;27;20202;-32
2022/10/24 12:27:57;;;;;;;1.63;0.90;;;;;;;;;;5145916;27;20238;-30
2022/10/24 12:30:25;;;;;;;2.10;1.00;;;;;;;;;;5137112;27;20219;-34
2022/10/24 12:32:54;;;;;;;4.00;1.00;;;;;;;;;;5138578;27;20310;-29
2022/10/24 12:35:56;;;;;;;3.07;0.90;;;;;;;;;;5146464;27;20218;-32
2022/10/24 12:38:42;;;;;;;0.80;0.80;;;;;;;;;;5051996;28;20205;-31
2022/10/24 12:41:35;;;;;;;1.27;0.97;;;;;;;;;;5146942;27;20226;-28
2022/10/24 12:44:21;;;;;;;1.67;1.57;;;;;;;;;;5143387;27;20214;-28
2022/10/24 12:46:56;;;;;;;0.93;0.83;;;;;;;;;;5141554;27;20230;-32
2022/10/24 12:49:29;;;;;;;4.63;1.40;;;;;;;;;;5143245;27;20209;-31
2022/10/24 12:51:57;;;;;;;1.40;1.20;;;;;;;;;;5142608;27;20195;-32
2022/10/24 12:54:39;;;;;;;1.00;1.00;;;;;;;;;;5149559;27;20271;-30
2022/10/24 12:57:23;;;;;;;2.27;1.20;;;;;;;;;;5136442;27;20211;-31
2022/10/24 12:59:51;;;;;;;2.03;1.13;;;;;;;;;;5146624;27;20223;-32
2022/10/24 13:02:33;;;;;;;6.93;1.60;;;;;;;;;;5151887;27;20221;-31
2022/10/24 13:05:10;;;;;;;3.53;1.23;;;;;;;;;;5129829;27;20209;-31
2022/10/24 13:07:45;;;;;;;1.10;1.00;;;;;;;;;;5144899;27;20203;-28
2022/10/24 13:10:21;;;;;;;6.50;1.90;;;;;;;;;;5153354;27;20236;-35
2022/10/24 13:12:55;;;;;;;6.43;2.30;;;;;;;;;;5145801;27;20207;-33
2022/10/24 13:15:37;;;;;;;5.83;1.73;;;;;;;;;;5151978;27;20198;-30
2022/10/24 13:18:18;;;;;;;4.73;2.53;;;;;;;;;;5148473;27;20195;-32
2022/10/24 13:20:49;;;;;;;7.97;2.80;;;;;;;;;;5151540;27;20225;-32
2022/10/24 13:23:18;;;;;;;27.60;4.97;;;;;;;;;;5147209;27;20213;-31
2022/10/24 13:25:45;;;;;;;8.13;3.10;;;;;;;;;;5155949;27;20213;-30
2022/10/24 13:28:33;;;;;;;6.93;2.53;;;;;;;;;;5149865;27;20227;-33
2022/10/24 13:31:15;;;;;;;7.40;2.20;;;;;;;;;;5151938;27;20236;-29
2022/10/24 13:33:43;;;;;;;4.40;2.20;;;;;;;;;;5137062;27;20293;-28
2022/10/24 13:36:21;;;;;;;5.83;1.73;;;;;;;;;;5149302;27;20224;-29
2022/10/24 13:38:51;;;;;;;5.83;1.63;;;;;;;;;;5146572;27;20217;-28
2022/10/24 13:41:22;;;;;;;4.50;1.63;;;;;;;;;;5143623;27;20235;-31
2022/10/24 13:43:50;;;;;;;7.60;1.60;;;;;;;;;;5139640;27;20203;-29
2022/10/24 13:46:23;;;;;;;3.27;1.50;;;;;;;;;;5150725;27;20203;-33
2022/10/24 13:48:51;;;;;;;6.40;1.53;;;;;;;;;;5133135;27;20207;-34
2022/10/24 13:51:22;;;;;;;3.90;1.57;;;;;;;;;;5141974;27;20230;-30
2022/10/24 13:53:52;;;;;;;3.40;1.10;;;;;;;;;;5152462;27;20194;-31
2022/10/24 13:56:19;;;;;;;3.60;1.50;;;;;;;;;;5154765;27;20206;-31
2022/10/24 13:58:47;;;;;;;3.23;1.40;;;;;;;;;;5134489;27;20203;-34
2022/10/24 14:01:17;;;;;;;2.67;1.30;;;;;;;;;;5143354;27;20242;-32
2022/10/24 14:03:48;;;;;;;8.53;1.70;;;;;;;;;;5136974;27;20207;-33
2022/10/24 14:06:16;;;;;;;5.77;1.50;;;;;;;;;;5133916;27;20203;-28
2022/10/24 14:08:46;;;;;;;3.47;1.33;;;;;;;;;;5142990;27;20199;-30
2022/10/24 14:11:14;;;;;;;4.10;1.37;;;;;;;;;;5146670;27;20225;-30
2022/10/24 14:13:44;;;;;;;2.27;1.53;;;;;;;;;;5146305;27;20210;-31
2022/10/24 14:16:12;;;;;;;2.67;1.20;;;;;;;;;;5149706;27;20203;-30
2022/10/24 14:18:40;;;;;;;6.17;1.50;;;;;;;;;;5132742;27;20202;-31
2022/10/24 14:21:17;;;;;;;2.87;1.20;;;;;;;;;;5149280;27;20309;-33
2022/10/24 14:23:53;;;;;;;4.40;1.20;;;;;;;;;;5143832;27;20399;-31
2022/10/24 14:26:21;;;;;;;2.93;1.23;;;;;;;;;;5139123;27;20191;-31
2022/10/24 14:28:50;;;;;;;1.53;1.40;;;;;;;;;;5133769;27;20207;-33
2022/10/24 14:31:20;;;;;;;1.93;1.13;;;;;;;;;;5148258;27;20222;-30
2022/10/24 14:33:55;;;;;;;3.93;1.30;;;;;;;;;;5135025;27;20202;-30
2022/10/24 14:36:23;;;;;;;1.70;1.30;;;;;;;;;;5145237;27;20248;-32
2022/10/24 14:38:56;;;;;;;1.60;1.40;;;;;;;;;;5135474;27;20297;-32
2022/10/24 14:41:28;;;;;;;3.37;1.30;;;;;;;;;;5141893;27;20258;-31
2022/10/24 14:43:57;;;;;;;4.73;1.43;;;;;;;;;;5150653;27;20199;-33
2022/10/24 14:46:34;;;;;;;2.57;1.30;;;;;;;;;;5133366;27;20211;-32
2022/10/24 14:49:02;;;;;;;5.17;1.47;;;;;;;;;;5136991;27;20209;-32
2022/10/24 14:51:33;;;;;;;2.93;1.30;;;;;;;;;;5153384;27;20226;-34
2022/10/24 14:54:01;;;;;;;1.63;1.20;;;;;;;;;;5146593;27;20222;-32
2022/10/24 14:56:31;;;;;;;5.13;1.50;;;;;;;;;;5148014;27;20203;-31
2022/10/24 14:58:59;;;;;;;3.00;1.60;;;;;;;;;;5143477;27;20205;-29
2022/10/24 15:01:27;;;;;;;3.77;1.53;;;;;;;;;;5154207;27;20226;-33